createdAt,value
2022-09-02T00:00:36.920Z,1003.089233
2022-09-02T00:01:36.775Z,1003.112793
2022-09-02T00:02:31.315Z,1003.024475
2022-09-02T00:03:37.966Z,1003.022217
2022-09-02T00:04:29.934Z,1003.088379
2022-09-02T00:05:31.148Z,1003.048889
2022-09-02T00:06:26.420Z,1003.0625
2022-09-02T00:07:31.105Z,1003.081238
2022-09-02T00:09:22.496Z,1003.054504
2022-09-02T00:10:23.987Z,1003.075623
2022-09-02T00:11:23.050Z,1003.027039
2022-09-02T00:12:23.533Z,1003.074707
2022-09-02T00:13:18.875Z,1003.000305
2022-09-02T00:14:20.670Z,1002.986389
2022-09-02T00:15:12.599Z,1002.996887
2022-09-02T00:16:09.534Z,1003.034058
2022-09-02T00:17:10.148Z,1003.020447
2022-09-02T00:19:08.054Z,1002.961426
2022-09-02T00:19:59.824Z,1002.902344
2022-09-02T00:20:59.271Z,1002.982422
2022-09-02T00:21:55.115Z,1002.933838
2022-09-02T00:22:54.484Z,1002.89093
2022-09-02T00:23:49.320Z,1002.925598
2022-09-02T00:24:51.921Z,1002.839844
2022-09-02T00:25:51.922Z,1002.86908
2022-09-02T00:26:51.593Z,1002.887512
2022-09-02T00:26:57.083Z,1002.887512
2022-09-02T00:27:55.162Z,1002.850342
2022-09-02T00:28:48.907Z,1002.864319
2022-09-02T00:29:48.256Z,1002.882629
2022-09-02T00:31:33.717Z,1002.859436
2022-09-02T00:32:17.820Z,1002.96936
2022-09-02T00:33:18.124Z,1002.890137
2022-09-02T00:34:25.937Z,1002.924194
2022-09-02T00:35:24.273Z,1002.902344
2022-09-02T00:36:27.480Z,1002.880493
2022-09-02T00:37:26.512Z,1002.850342
2022-09-02T00:38:28.633Z,1002.877014
2022-09-02T00:39:26.823Z,1002.911072
2022-09-02T00:40:25.465Z,1002.868225
2022-09-02T00:41:25.737Z,1002.800842
2022-09-02T00:42:26.669Z,1002.838074
2022-09-02T00:43:28.716Z,1002.872986
2022-09-02T00:44:27.313Z,1002.877808
2022-09-02T00:45:28.861Z,1002.820923
2022-09-02T00:46:33.262Z,1002.815308
2022-09-02T00:47:36.274Z,1002.791077
2022-09-02T00:48:39.165Z,1002.764404
2022-09-02T00:49:43.501Z,1002.744873
2022-09-02T00:50:46.421Z,1002.76001
2022-09-02T00:51:44.561Z,1002.743835
2022-09-02T00:52:44.526Z,1002.789246
2022-09-02T00:53:46.860Z,1002.752014
2022-09-02T00:54:44.580Z,1002.772705
2022-09-02T00:55:46.688Z,1002.799377
2022-09-02T00:56:49.775Z,1002.775024
2022-09-02T00:57:51.792Z,1002.740295
2022-09-02T00:59:51.733Z,1002.750793
2022-09-02T01:00:52.241Z,1002.69751
2022-09-02T01:01:54.129Z,1002.745178
2022-09-02T01:02:51.933Z,1002.683594
2022-09-02T01:03:56.243Z,1002.699707
2022-09-02T01:04:58.193Z,1002.696533
2022-09-02T01:05:56.721Z,1002.754639
2022-09-02T01:07:02.018Z,1002.741638
2022-09-02T01:09:06.769Z,1002.674866
2022-09-02T01:10:06.804Z,1002.771118
2022-09-02T01:11:06.368Z,1002.732971
2022-09-02T01:12:08.547Z,1002.655151
2022-09-02T01:14:06.905Z,1002.638977
2022-09-02T01:15:07.119Z,1002.643738
2022-09-02T01:16:08.053Z,1002.62439
2022-09-02T01:17:04.818Z,1002.66156
2022-09-02T01:19:07.335Z,1002.743835
2022-09-02T01:20:14.648Z,1002.711182
2022-09-02T01:21:11.983Z,1002.687012
2022-09-02T01:22:08.610Z,1002.707947
2022-09-02T01:24:10.092Z,1002.644226
2022-09-02T01:25:54.250Z,1002.672058
2022-09-02T01:26:33.928Z,1002.654236
2022-09-02T01:27:32.015Z,1002.70282
2022-09-02T01:28:30.461Z,1002.647217
2022-09-02T01:29:26.033Z,1002.598694
2022-09-02T01:30:25.682Z,1002.605713
2022-09-02T01:31:20.300Z,1002.637207
2022-09-02T01:32:19.947Z,1002.588257
2022-09-02T01:33:15.313Z,1002.639404
2022-09-02T01:34:14.353Z,1002.62323
2022-09-02T01:35:12.468Z,1002.635925
2022-09-02T01:36:12.614Z,1002.593018
2022-09-02T01:37:11.805Z,1002.568909
2022-09-02T01:38:13.823Z,1002.547974
2022-09-02T01:39:09.108Z,1002.551086
2022-09-02T01:40:11.948Z,1002.567322
2022-09-02T01:41:04.778Z,1002.551086
2022-09-02T01:42:07.860Z,1002.527039
2022-09-02T01:43:00.628Z,1002.518738
2022-09-02T01:44:57.969Z,1002.48407
2022-09-02T01:46:00.114Z,1002.425049
2022-09-02T01:47:00.312Z,1002.49939
2022-09-02T01:47:58.629Z,1002.474976
2022-09-02T01:49:01.466Z,1002.464539
2022-09-02T01:49:56.750Z,1002.50415
2022-09-02T01:50:56.539Z,1002.50415
2022-09-02T01:51:51.728Z,1002.479675
2022-09-02T01:52:50.614Z,1002.43689
2022-09-02T01:53:48.754Z,1002.490173
2022-09-02T01:54:51.705Z,1002.476563
2022-09-02T01:55:47.372Z,1002.468262
2022-09-02T01:56:48.843Z,1002.433655
2022-09-02T01:57:44.244Z,1002.407043
2022-09-02T01:58:46.609Z,1002.433655
2022-09-02T01:59:44.049Z,1002.427979
2022-09-02T02:00:45.535Z,1002.422241
2022-09-02T02:01:49.652Z,1002.406067
2022-09-02T02:02:45.360Z,1002.469849
2022-09-02T02:04:52.206Z,1002.453674
2022-09-02T02:05:46.645Z,1002.421265
2022-09-02T02:06:53.399Z,1002.434937
2022-09-02T02:08:39.833Z,1002.455627
2022-09-02T02:09:23.322Z,1002.370789
2022-09-02T02:10:22.007Z,1002.387024
2022-09-02T02:11:23.973Z,1002.461243
2022-09-02T02:12:26.865Z,1002.521545
2022-09-02T02:13:28.661Z,1002.460327
2022-09-02T02:14:26.827Z,1002.440613
2022-09-02T02:16:29.214Z,1002.476807
2022-09-02T02:17:27.758Z,1002.473572
2022-09-02T02:18:30.077Z,1002.489868
2022-09-02T02:19:31.444Z,1002.467896
2022-09-02T02:20:27.371Z,1002.478333
2022-09-02T02:21:29.087Z,1002.427246
2022-09-02T02:22:27.802Z,1002.432007
2022-09-02T02:24:33.179Z,1002.415649
2022-09-02T02:25:29.653Z,1002.384155
2022-09-02T02:26:39.394Z,1002.388916
2022-09-02T02:27:40.414Z,1002.367004
2022-09-02T02:28:38.370Z,1002.367004
2022-09-02T02:29:39.898Z,1002.398438
2022-09-02T02:30:36.271Z,1002.483154
2022-09-02T02:31:37.673Z,1002.410095
2022-09-02T02:32:34.551Z,1002.414856
2022-09-02T02:33:37.540Z,1002.449707
2022-09-02T02:34:36.595Z,1002.427795
2022-09-02T02:35:39.546Z,1002.442993
2022-09-02T02:36:37.621Z,1002.418457
2022-09-02T02:37:42.435Z,1002.439392
2022-09-02T02:38:37.823Z,1002.402344
2022-09-02T02:39:45.104Z,1002.396545
2022-09-02T02:40:44.552Z,1002.399048
2022-09-02T02:41:48.147Z,1002.41748
2022-09-02T02:42:46.682Z,1002.393311
2022-09-02T02:44:45.326Z,1002.377136
2022-09-02T02:45:46.799Z,1002.451355
2022-09-02T02:46:48.321Z,1002.328491
2022-09-02T02:47:46.876Z,1002.338989
2022-09-02T02:49:48.494Z,1002.43158
2022-09-02T02:50:48.945Z,1002.471069
2022-09-02T02:51:49.664Z,1002.412109
2022-09-02T02:53:33.435Z,1002.469666
2022-09-02T02:54:13.489Z,1002.41748
2022-09-02T02:55:12.751Z,1002.378113
2022-09-02T02:56:15.460Z,1002.396545
2022-09-02T02:57:16.720Z,1002.29718
2022-09-02T02:58:16.590Z,1002.419983
2022-09-02T02:59:15.179Z,1002.44873
2022-09-02T03:00:13.737Z,1002.363098
2022-09-02T03:01:15.346Z,1002.445618
2022-09-02T03:02:13.942Z,1002.43158
2022-09-02T03:03:13.473Z,1002.386536
2022-09-02T03:04:10.488Z,1002.3703
2022-09-02T03:05:15.805Z,1002.340149
2022-09-02T03:06:10.552Z,1002.281067
2022-09-02T03:07:14.063Z,1002.353027
2022-09-02T03:08:13.561Z,1002.281067
2022-09-02T03:09:17.366Z,1002.336853
2022-09-02T03:10:17.396Z,1002.314941
2022-09-02T03:11:19.589Z,1002.290466
2022-09-02T03:12:14.030Z,1002.327515
2022-09-02T03:14:08.727Z,1002.327515
2022-09-02T03:15:12.842Z,1002.332214
2022-09-02T03:16:05.887Z,1002.342651
2022-09-02T03:17:04.666Z,1002.326416
2022-09-02T03:18:06.176Z,1002.265259
2022-09-02T03:19:59.413Z,1002.320618
2022-09-02T03:21:12.276Z,1002.312744
2022-09-02T03:22:11.340Z,1002.32782
2022-09-02T03:23:18.678Z,1002.299866
2022-09-02T03:24:11.325Z,1002.301941
2022-09-02T03:25:10.543Z,1002.286865
2022-09-02T03:26:08.044Z,1002.313416
2022-09-02T03:27:07.366Z,1002.264832
2022-09-02T03:28:02.674Z,1002.294067
2022-09-02T03:30:00.433Z,1002.248779
2022-09-02T03:31:02.383Z,1002.277832
2022-09-02T03:31:54.928Z,1002.314941
2022-09-02T03:33:01.760Z,1002.266357
2022-09-02T03:33:04.307Z,1002.266357
2022-09-02T03:34:52.081Z,1002.318115
2022-09-02T03:35:37.425Z,1002.260132
2022-09-02T03:36:38.273Z,1002.233582
2022-09-02T03:37:41.879Z,1002.158264
2022-09-02T03:39:39.650Z,1002.263855
2022-09-02T03:40:37.069Z,1002.21521
2022-09-02T03:41:57.598Z,1002.228149
2022-09-02T03:43:00.833Z,1002.232483
2022-09-02T03:44:00.274Z,1002.188538
2022-09-02T03:45:02.482Z,1002.177002
2022-09-02T03:45:59.803Z,1002.200073
2022-09-02T03:47:04.529Z,1002.161926
2022-09-02T03:48:05.412Z,1002.228149
2022-09-02T03:49:04.820Z,1002.193298
2022-09-02T03:50:02.567Z,1002.195801
2022-09-02T03:51:07.593Z,1002.179504
2022-09-02T03:52:09.387Z,1002.181702
2022-09-02T03:54:36.049Z,1002.234985
2022-09-02T03:55:16.377Z,1002.16803
2022-09-02T03:56:16.199Z,1002.237488
2022-09-02T03:57:11.283Z,1002.15979
2022-09-02T03:58:12.175Z,1002.231689
2022-09-02T03:59:12.243Z,1002.14032
2022-09-02T04:00:13.197Z,1002.16333
2022-09-02T04:01:08.287Z,1002.229248
2022-09-02T04:02:11.062Z,1002.161926
2022-09-02T04:03:03.654Z,1002.143616
2022-09-02T04:04:05.257Z,1002.143616
2022-09-02T04:05:05.263Z,1002.180603
2022-09-02T04:05:15.639Z,1002.180603
2022-09-02T04:05:15.719Z,1002.180603
2022-09-02T04:06:03.696Z,1002.164368
2022-09-02T04:07:05.143Z,1002.164368
2022-09-02T04:08:00.690Z,1002.201416
2022-09-02T04:09:59.923Z,1002.200317
2022-09-02T04:11:01.098Z,1002.088074
2022-09-02T04:11:56.337Z,1002.125183
2022-09-02T04:12:58.492Z,1002.111084
2022-09-02T04:15:02.614Z,1002.105286
2022-09-02T04:16:02.846Z,1002.15271
2022-09-02T04:17:01.849Z,1002.099548
2022-09-02T04:18:03.513Z,1002.205933
2022-09-02T04:20:06.171Z,1002.117004
2022-09-02T04:21:00.724Z,1002.119202
2022-09-02T04:22:03.530Z,1002.188599
2022-09-02T04:22:57.026Z,1002.100769
2022-09-02T04:24:53.565Z,1002.071716
2022-09-02T04:25:51.509Z,1002.159851
2022-09-02T04:26:52.839Z,1002.082092
2022-09-02T04:27:49.197Z,1002.057983
2022-09-02T04:29:51.147Z,1002.148254
2022-09-02T04:30:55.733Z,1002.148254
2022-09-02T04:31:48.209Z,1002.049683
2022-09-02T04:32:48.937Z,1002.148254
2022-09-02T04:34:47.229Z,1002.113342
2022-09-02T04:35:43.664Z,1002.134216
2022-09-02T04:36:45.925Z,1002.091431
2022-09-02T04:38:33.216Z,1002.063721
2022-09-02T04:39:13.144Z,1002.070679
2022-09-02T04:40:11.185Z,1002.076477
2022-09-02T04:41:10.192Z,1002.107727
2022-09-02T04:42:04.961Z,1002.104126
2022-09-02T04:43:11.405Z,1002.124939
2022-09-02T04:44:06.846Z,1002.057983
2022-09-02T04:45:08.583Z,1002.043884
2022-09-02T04:46:08.704Z,1002.091431
2022-09-02T04:47:09.367Z,1002.069397
2022-09-02T04:48:09.929Z,1002.112183
2022-09-02T04:49:10.122Z,1002.138855
2022-09-02T04:50:11.673Z,1002.061401
2022-09-02T04:51:06.426Z,1002.079834
2022-09-02T04:52:08.116Z,1002.063599
2022-09-02T04:53:00.472Z,1002.112183
2022-09-02T04:54:03.153Z,1002.093811
2022-09-02T04:54:57.332Z,1002.021973
2022-09-02T04:55:58.369Z,1002.117981
2022-09-02T04:56:55.752Z,1002.085632
2022-09-02T04:57:54.224Z,1002.095947
2022-09-02T04:58:56.496Z,1002.120483
2022-09-02T04:59:55.671Z,1002.165466
2022-09-02T05:00:51.450Z,1002.045227
2022-09-02T05:01:53.914Z,1002.106384
2022-09-02T05:02:48.740Z,1002.138855
2022-09-02T05:04:49.099Z,1002.085632
2022-09-02T05:05:50.955Z,1002.061401
2022-09-02T05:06:57.508Z,1002.104248
2022-09-02T05:08:02.226Z,1002.061401
2022-09-02T05:10:01.150Z,1002.125061
2022-09-02T05:11:31.484Z,1002.159607
2022-09-02T05:12:12.295Z,1002.122681
2022-09-02T05:13:10.278Z,1002.158569
2022-09-02T05:15:08.403Z,1002.169067
2022-09-02T05:16:09.027Z,1002.091431
2022-09-02T05:17:07.803Z,1002.091431
2022-09-02T05:18:05.088Z,1002.165466
2022-09-02T05:19:00.327Z,1002.109985
2022-09-02T05:20:03.616Z,1002.147034
2022-09-02T05:21:00.214Z,1002.120483
2022-09-02T05:22:02.720Z,1002.194519
2022-09-02T05:23:00.697Z,1002.116821
2022-09-02T05:24:01.816Z,1002.09845
2022-09-02T05:24:54.970Z,1002.135498
2022-09-02T05:25:54.371Z,1002.180481
2022-09-02T05:26:49.168Z,1002.110962
2022-09-02T05:31:13.980Z,1002.080933
2022-09-02T05:31:49.937Z,1002.161255
2022-09-02T05:42:40.673Z,1002.163757
2022-09-02T05:44:59.607Z,1002.077271
2022-09-02T05:46:14.343Z,1002.050476
2022-09-02T05:47:16.776Z,1002.06311
2022-09-02T05:48:16.973Z,1002.054932
2022-09-02T05:50:16.040Z,1002.07782
2022-09-02T05:56:06.650Z,1002.061646
2022-09-02T05:58:21.324Z,1002.047668
2022-09-02T06:00:53.828Z,1001.96814
2022-09-02T06:03:37.214Z,1001.976074
2022-09-02T06:04:24.963Z,1001.958618
2022-09-02T06:05:27.852Z,1001.975342
2022-09-02T06:11:20.865Z,1001.942444
2022-09-02T06:13:44.902Z,1001.948608
2022-09-02T06:15:26.366Z,1001.997009
2022-09-02T06:17:52.446Z,1002.071106
2022-09-02T06:19:53.010Z,1002.00531
2022-09-02T06:23:45.811Z,1001.989441
2022-09-02T06:24:27.604Z,1002.05188
2022-09-02T06:25:25.252Z,1001.989075
2022-09-02T06:26:26.745Z,1002.016724
2022-09-02T06:27:22.160Z,1002.02002
2022-09-02T06:28:20.688Z,1002.13208
2022-09-02T06:29:17.119Z,1002.054871
2022-09-02T06:30:16.956Z,1002.032043
2022-09-02T06:31:12.096Z,1001.985168
2022-09-02T06:32:12.245Z,1002.034973
2022-09-02T06:33:06.609Z,1002.085144
2022-09-02T06:34:07.700Z,1002.028381
2022-09-02T06:34:59.249Z,1002.000793
2022-09-02T06:35:58.684Z,1002.040405
2022-09-02T06:36:53.108Z,1002.020752
2022-09-02T06:37:53.388Z,1001.990845
2022-09-02T06:38:49.835Z,1002.040649
2022-09-02T06:39:48.775Z,1002.060608
2022-09-02T06:40:42.683Z,1002.130066
2022-09-02T06:41:42.377Z,1002.025024
2022-09-02T06:42:36.716Z,1002.037659
2022-09-02T06:44:32.720Z,1001.986877
2022-09-02T06:45:30.547Z,1002.048096
2022-09-02T06:46:25.976Z,1002.040161
2022-09-02T06:47:24.241Z,1002.085144
2022-09-02T06:48:18.613Z,1001.962402
2022-09-02T06:49:21.209Z,1001.999512
2022-09-02T06:50:13.838Z,1002.002014
2022-09-02T06:51:13.060Z,1002.059998
2022-09-02T06:52:09.266Z,1002.064697
2022-09-02T06:53:06.643Z,1002.064697
2022-09-02T06:54:06.787Z,1002.062195
2022-09-02T06:55:01.097Z,1002.065796
2022-09-02T06:56:02.303Z,1002.06897
2022-09-02T06:57:00.094Z,1002.03186
2022-09-02T06:57:51.903Z,1002.049072
2022-09-02T06:58:55.126Z,1002.052673
2022-09-02T06:59:47.478Z,1002.015442
2022-09-02T07:00:48.832Z,1002.060608
2022-09-02T07:01:41.627Z,1002.042175
2022-09-02T07:02:38.873Z,1001.959717
2022-09-02T07:04:25.345Z,1002.056885
2022-09-02T07:05:06.931Z,1001.988342
2022-09-02T07:06:05.607Z,1001.991882
2022-09-02T07:07:06.939Z,1002.002319
2022-09-02T07:08:05.467Z,1002.041626
2022-09-02T07:09:06.677Z,1002.019714
2022-09-02T07:10:03.067Z,1002.008301
2022-09-02T07:11:08.785Z,1002.053589
2022-09-02T07:12:07.907Z,1001.975952
2022-09-02T07:13:11.199Z,1002.002502
2022-09-02T07:14:12.633Z,1001.967957
2022-09-02T07:15:09.224Z,1001.988892
2022-09-02T07:16:11.479Z,1001.996887
2022-09-02T07:16:21.807Z,1001.996887
2022-09-02T07:17:11.816Z,1002.018738
2022-09-02T07:18:08.952Z,1002.07782
2022-09-02T07:19:17.243Z,1002.044189
2022-09-02T07:19:20.637Z,1002.044189
2022-09-02T07:20:10.174Z,1002.033752
2022-09-02T07:21:11.702Z,1002.031189
2022-09-02T07:22:08.344Z,1002.007996
2022-09-02T07:23:11.855Z,1001.98938
2022-09-02T07:24:06.213Z,1002.029907
2022-09-02T07:25:07.011Z,1002.021729
2022-09-02T07:26:05.895Z,1001.968384
2022-09-02T07:27:07.487Z,1001.987061
2022-09-02T07:28:05.763Z,1002.050964
2022-09-02T07:29:11.011Z,1002.050964
2022-09-02T07:30:05.608Z,1001.994995
2022-09-02T07:31:09.696Z,1001.992798
2022-09-02T07:32:03.929Z,1002.014709
2022-09-02T07:33:08.056Z,1001.972839
2022-09-02T07:34:02.545Z,1002.000366
2022-09-02T07:35:04.660Z,1001.934082
2022-09-02T07:36:04.763Z,1001.993103
2022-09-02T07:36:10.847Z,1001.993103
2022-09-02T07:37:11.079Z,1002.049866
2022-09-02T07:38:14.196Z,1001.933594
2022-09-02T07:39:18.445Z,1001.96344
2022-09-02T07:40:12.739Z,1001.985291
2022-09-02T07:41:14.447Z,1002.028137
2022-09-02T07:42:10.997Z,1001.974854
2022-09-02T07:43:12.750Z,1001.945923
2022-09-02T07:44:10.251Z,1001.922668
2022-09-02T07:45:14.728Z,1001.909851
2022-09-02T07:46:11.956Z,1001.942261
2022-09-02T07:47:13.234Z,1001.966431
2022-09-02T07:48:12.323Z,1001.875793
2022-09-02T07:49:16.895Z,1001.908203
2022-09-02T07:50:19.703Z,1001.913879
2022-09-02T07:50:20.796Z,1001.913879
2022-09-02T07:51:15.053Z,1001.93573
2022-09-02T07:52:12.459Z,1001.914673
2022-09-02T07:53:16.216Z,1001.867004
2022-09-02T07:55:15.100Z,1001.827515
2022-09-02T07:56:10.998Z,1001.876099
2022-09-02T07:57:48.589Z,1001.84845
2022-09-02T07:58:28.904Z,1001.812744
2022-09-02T07:59:27.356Z,1001.830383
2022-09-02T08:00:28.409Z,1001.780762
2022-09-02T08:01:24.116Z,1001.805847
2022-09-02T08:02:24.057Z,1001.84375
2022-09-02T08:03:19.560Z,1001.796021
2022-09-02T08:04:19.784Z,1001.868591
2022-09-02T08:05:15.114Z,1001.882446
2022-09-02T08:06:14.448Z,1001.847473
2022-09-02T08:07:09.805Z,1001.836853
2022-09-02T08:08:09.411Z,1001.810181
2022-09-02T08:10:07.293Z,1001.781189
2022-09-02T08:10:59.722Z,1001.837646
2022-09-02T08:11:59.560Z,1001.784119
2022-09-02T08:12:54.384Z,1001.782166
2022-09-02T08:13:54.548Z,1001.832947
2022-09-02T08:14:49.832Z,1001.798279
2022-09-02T08:15:51.854Z,1001.846802
2022-09-02T08:16:44.868Z,1001.876465
2022-09-02T08:17:44.910Z,1001.877136
2022-09-02T08:18:40.503Z,1001.896545
2022-09-02T08:19:40.351Z,1001.872803
2022-09-02T08:20:35.816Z,1001.777039
2022-09-02T08:21:38.522Z,1001.807007
2022-09-02T08:24:28.669Z,1001.763306
2022-09-02T08:25:26.936Z,1001.806641
2022-09-02T08:26:27.525Z,1001.825989
2022-09-02T08:27:23.078Z,1001.821045
2022-09-02T08:28:26.467Z,1001.858887
2022-09-02T08:30:20.212Z,1001.835999
2022-09-02T08:31:15.745Z,1001.839233
2022-09-02T08:32:13.998Z,1001.788574
2022-09-02T08:33:51.369Z,1001.827209
2022-09-02T08:34:31.618Z,1001.787842
2022-09-02T08:35:29.374Z,1001.863464
2022-09-02T08:36:29.879Z,1001.863892
2022-09-02T08:37:26.103Z,1001.832031
2022-09-02T08:38:26.448Z,1001.794983
2022-09-02T08:40:23.087Z,1001.793457
2022-09-02T08:41:18.611Z,1001.791382
2022-09-02T08:42:18.684Z,1001.847656
2022-09-02T08:43:13.989Z,1001.75946
2022-09-02T08:44:13.638Z,1001.740601
2022-09-02T08:45:09.075Z,1001.775635
2022-09-02T08:46:09.311Z,1001.820923
2022-09-02T08:47:04.266Z,1001.689758
2022-09-02T08:48:03.904Z,1001.665466
2022-09-02T08:49:59.227Z,1001.708252
2022-09-02T08:50:55.485Z,1001.732666
2022-09-02T08:51:54.615Z,1001.665771
2022-09-02T08:52:50.058Z,1001.79718
2022-09-02T08:54:47.519Z,1001.767639
2022-09-02T08:55:42.954Z,1001.808105
2022-09-02T08:56:42.276Z,1001.749451
2022-09-02T08:57:43.332Z,1001.73877
2022-09-02T08:58:35.570Z,1001.78717
2022-09-02T08:59:35.598Z,1001.747009
2022-09-02T09:00:31.048Z,1001.715027
2022-09-02T09:01:34.248Z,1001.760925
2022-09-02T09:02:27.316Z,1001.689087
2022-09-02T09:03:30.080Z,1001.710632
2022-09-02T09:05:22.702Z,1001.577209
2022-09-02T09:06:20.727Z,1001.614868
2022-09-02T09:07:17.935Z,1001.558838
2022-09-02T09:11:06.034Z,1001.525879
2022-09-02T09:11:44.738Z,1001.542053
2022-09-02T09:12:41.878Z,1001.501709
2022-09-02T09:13:41.551Z,1001.52063
2022-09-02T09:14:36.969Z,1001.47229
2022-09-02T09:15:34.165Z,1001.466858
2022-09-02T09:16:30.304Z,1001.506958
2022-09-02T09:17:27.218Z,1001.46405
2022-09-02T09:18:26.521Z,1001.442505
2022-09-02T09:20:18.695Z,1001.511902
2022-09-02T09:21:15.065Z,1001.490417
2022-09-02T09:22:14.091Z,1001.487915
2022-09-02T09:23:07.925Z,1001.468994
2022-09-02T09:25:01.909Z,1001.503967
2022-09-02T09:25:59.028Z,1001.399231
2022-09-02T09:26:58.077Z,1001.440002
2022-09-02T09:27:52.370Z,1001.418579
2022-09-02T09:29:47.621Z,1001.466858
2022-09-02T09:30:41.685Z,1001.381104
2022-09-02T09:31:38.837Z,1001.313843
2022-09-02T09:32:37.767Z,1001.3703
2022-09-02T09:33:32.071Z,1001.332825
2022-09-02T09:34:34.075Z,1001.319214
2022-09-02T09:35:25.995Z,1001.281738
2022-09-02T09:37:11.223Z,1001.15033
2022-09-02T09:37:50.996Z,1001.136536
2022-09-02T09:39:46.353Z,1001.155396
2022-09-02T09:40:44.359Z,1001.190186
2022-09-02T09:41:43.536Z,1001.168701
2022-09-02T09:42:41.325Z,1001.128418
2022-09-02T09:44:35.778Z,1001.098755
2022-09-02T09:45:33.186Z,1001.128418
2022-09-02T09:46:32.918Z,1001.114746
2022-09-02T09:47:27.721Z,1001.034241
2022-09-02T09:48:29.965Z,1001.104004
2022-09-02T09:50:26.422Z,1001.055481
2022-09-02T09:51:18.899Z,1001.01532
2022-09-02T09:52:21.601Z,1001.098572
2022-09-02T09:53:14.298Z,1001.015442
2022-09-02T09:54:16.680Z,1001.028564
2022-09-02T09:55:11.556Z,1000.931702
2022-09-02T09:56:07.932Z,1000.942322
2022-09-02T09:57:08.184Z,1000.902161
2022-09-02T09:58:03.316Z,1000.985168
2022-09-02T10:01:03.745Z,1001.043884
2022-09-02T10:01:56.588Z,1000.968567
2022-09-02T10:02:59.063Z,1001.025085
2022-09-02T10:04:54.607Z,1000.976379
2022-09-02T10:05:47.187Z,1000.976074
2022-09-02T10:06:44.898Z,1000.935547
2022-09-02T10:07:45.199Z,1001.000183
2022-09-02T10:08:39.227Z,1000.917053
2022-09-02T10:09:41.189Z,1000.960327
2022-09-02T10:10:33.513Z,1000.979004
2022-09-02T10:11:32.874Z,1000.960327
2022-09-02T10:12:30.386Z,1000.989746
2022-09-02T10:15:05.002Z,1001.121094
2022-09-02T10:16:00.216Z,1001.018799
2022-09-02T10:17:00.411Z,1001.067322
2022-09-02T10:17:56.215Z,1001.05127
2022-09-02T10:19:35.089Z,1000.981384
2022-09-02T10:20:14.467Z,1001.016174
2022-09-02T10:21:15.642Z,1000.932983
2022-09-02T10:22:13.942Z,1000.927673
2022-09-02T10:23:09.515Z,1000.973206
2022-09-02T10:25:04.956Z,1000.944214
2022-09-02T10:26:04.654Z,1000.944458
2022-09-02T10:27:00.651Z,1000.98468
2022-09-02T10:27:59.344Z,1000.952576
2022-09-02T10:28:54.390Z,1000.931274
2022-09-02T10:29:56.024Z,1000.917969
2022-09-02T10:30:48.719Z,1000.955627
2022-09-02T10:31:50.728Z,1000.920654
2022-09-02T10:32:42.778Z,1000.877686
2022-09-02T10:34:40.979Z,1000.875305
2022-09-02T10:35:39.999Z,1000.861694
2022-09-02T10:36:35.144Z,1000.902344
2022-09-02T10:37:34.803Z,1000.789551
2022-09-02T10:38:31.175Z,1000.837952
2022-09-02T10:40:30.516Z,1000.851379
2022-09-02T10:41:27.611Z,1000.800537
2022-09-02T10:42:27.802Z,1000.776245
2022-09-02T10:43:22.779Z,1000.897339
2022-09-02T10:45:17.235Z,1000.738464
2022-09-02T10:46:18.953Z,1000.730652
2022-09-02T10:47:11.051Z,1000.719849
2022-09-02T10:48:15.338Z,1000.719849
2022-09-02T10:50:09.654Z,1000.749207
2022-09-02T10:51:09.886Z,1000.727966
2022-09-02T10:52:04.574Z,1000.730713
2022-09-02T10:53:05.958Z,1000.765442
2022-09-02T10:54:57.876Z,1000.773621
2022-09-02T10:56:00.003Z,1000.765442
2022-09-02T10:56:52.620Z,1000.819214
2022-09-02T10:58:15.549Z,1000.746826
2022-09-02T10:58:56.272Z,1000.711731
2022-09-02T10:59:55.761Z,1000.741333
2022-09-02T11:00:56.294Z,1000.752136
2022-09-02T11:01:55.604Z,1000.700928
2022-09-02T11:02:54.488Z,1000.765442
2022-09-02T11:03:50.063Z,1000.765442
2022-09-02T11:04:50.111Z,1000.709351
2022-09-02T11:04:55.289Z,1000.709351
2022-09-02T11:05:48.882Z,1000.65271
2022-09-02T11:07:02.554Z,1000.719971
2022-09-02T11:07:03.058Z,1000.719971
2022-09-02T11:07:03.338Z,1000.719971
2022-09-02T11:07:46.326Z,1000.741333
2022-09-02T11:08:41.809Z,1000.725098
2022-09-02T11:10:37.987Z,1000.773254
2022-09-02T11:11:38.358Z,1000.684509
2022-09-02T11:12:34.813Z,1000.676575
2022-09-02T11:13:34.687Z,1000.663147
2022-09-02T11:15:30.868Z,1000.69812
2022-09-02T11:15:36.122Z,1000.69812
2022-09-02T11:16:30.242Z,1000.679199
2022-09-02T11:17:26.185Z,1000.668457
2022-09-02T11:18:27.025Z,1000.695313
2022-09-02T11:20:27.441Z,1000.706116
2022-09-02T11:21:20.527Z,1000.614685
2022-09-02T11:22:27.286Z,1000.630798
2022-09-02T11:23:19.533Z,1000.628174
2022-09-02T11:25:15.365Z,1000.576904
2022-09-02T11:26:10.936Z,1000.549988
2022-09-02T11:27:32.091Z,1000.601074
2022-09-02T11:27:32.289Z,1000.601074
2022-09-02T11:27:32.416Z,1000.601074
2022-09-02T11:28:10.839Z,1000.568726
2022-09-02T11:29:07.187Z,1000.530762
2022-09-02T11:30:07.623Z,1000.586853
2022-09-02T11:31:03.811Z,1000.514465
2022-09-02T11:32:04.493Z,1000.557434
2022-09-02T11:33:00.508Z,1000.559998
2022-09-02T11:34:58.895Z,1000.52002
2022-09-02T11:35:55.060Z,1000.530762
2022-09-02T11:36:56.328Z,1000.503906
2022-09-02T11:37:53.520Z,1000.527893
2022-09-02T11:39:54.393Z,1000.506226
2022-09-02T11:40:11.180Z,1000.506226
2022-09-02T11:40:17.331Z,1000.506226
2022-09-02T11:41:50.272Z,1000.527039
2022-09-02T11:42:50.814Z,1000.524231
2022-09-02T11:43:47.494Z,1000.532043
2022-09-02T11:44:52.861Z,1000.462158
2022-09-02T11:46:16.956Z,1000.494385
2022-09-02T11:46:57.900Z,1000.496948
2022-09-02T11:47:58.479Z,1000.434692
2022-09-02T11:49:53.306Z,1000.528748
2022-09-02T11:50:52.394Z,1000.477661
2022-09-02T11:51:47.595Z,1000.458923
2022-09-02T11:52:50.254Z,1000.405151
2022-09-02T11:53:42.827Z,1000.442871
2022-09-02T11:55:39.345Z,1000.351379
2022-09-02T11:56:37.558Z,1000.429077
2022-09-02T11:57:35.853Z,1000.302917
2022-09-02T11:58:31.159Z,1000.337646
2022-09-02T12:00:27.677Z,1000.388733
2022-09-02T12:01:25.613Z,1000.461243
2022-09-02T12:02:25.473Z,1000.472046
2022-09-02T12:03:40.303Z,1000.501892
2022-09-02T12:03:41.214Z,1000.501892
2022-09-02T12:04:06.741Z,1000.501892
2022-09-02T12:05:17.747Z,1000.366699
2022-09-02T12:06:20.301Z,1000.315552
2022-09-02T12:07:14.164Z,1000.36377
2022-09-02T12:08:16.947Z,1000.344971